This is the latest recevied weather packets stored in our database for station/object Seibranz. If no packets are shown the sender has not sent any weather packets the latest 10 day(s).
| Time | Temp. | Humidity | Pressure | Rain* | Wind** | Luminosity | Snow |
|---|---|---|---|---|---|---|---|
| 1777957331 | 7.78° C | 94% | 1008.2 hPa | 0 mm | - | - | - |
| 1777955531 | 5° C | 93% | 1008.5 hPa | 0 mm | - | - | - |
| 1777953731 | 4.44° C | 92% | 1008.5 hPa | 0 mm | - | - | - |
| 1777951931 | 5° C | 92% | 1008.7 hPa | 0 mm | - | - | - |
| 1777950134 | 5° C | 91% | 1009 hPa | 0 mm | - | - | - |
| 1777948331 | 5.56° C | 91% | 1009 hPa | 0 mm | - | - | - |
| 1777946531 | 6.11° C | 91% | 1009.2 hPa | 0 mm | - | - | - |
| 1777944731 | 7.22° C | 91% | 1009.5 hPa | 0 mm | - | - | - |
| 1777942931 | 7.22° C | 92% | 1009.9 hPa | 0 mm | - | - | - |
| 1777941129 | 6.11° C | 91% | 1010.1 hPa | 0 mm | - | - | - |
| 1777939330 | 6.11° C | 91% | 1010.2 hPa | 0 mm | - | - | - |
| 1777937529 | 7.22° C | 88% | 1010.5 hPa | 0 mm | - | - | - |
| 1777935730 | 7.22° C | 86% | 1010.8 hPa | 0 mm | - | - | - |
| 1777933935 | 7.78° C | 86% | 1010.8 hPa | 0 mm | - | - | - |
| 1777930329 | 12.22° C | 72% | 1010.9 hPa | 0 mm | - | - | - |
| 1777928529 | 11.67° C | 71% | 1011 hPa | 0 mm | - | - | - |
| 1777926729 | 11.11° C | 71% | 1010.9 hPa | 0 mm | - | - | - |
| 1777924929 | 10.56° C | 72% | 1010.9 hPa | 0 mm | - | - | - |
| 1777923129 | 11.11° C | 70% | 1010.8 hPa | 0 mm | - | - | - |
| 1777921329 | 14.44° C | 57% | 1010.9 hPa | 0 mm | - | - | - |
| 1777919529 | 15.56° C | 57% | 1010.9 hPa | 0 mm | - | - | - |
| 1777917734 | 17.22° C | 49% | 1010.7 hPa | 0 mm | - | - | - |
| 1777915929 | 17.78° C | 47% | 1010.5 hPa | 0 mm | - | - | - |
| 1777914130 | 18.89° C | 43% | 1010.4 hPa | 0 mm | - | - | - |
| 1777912332 | 19.44° C | 43% | 1010.4 hPa | 0 mm | - | - | - |
* Rain since midnight (hover to see other rain measurements)
** Current wind speed in m/s (hover to see current wind gust speed)